Maersk Lirquen — VRKB8 — position and weather

sailwx.info

Track history (hours):
 
Tides and Currents Weather Stations Pressure Air Temp Water Temp Dewpoint Dewpoint Depression Visibility Wind Speed Wind Dir Waves Ship Positions

Maersk Lirquen

Last reported at 2016-Jul-23 11:15 UTC. Time now 2016-Jul-23 13:07 UTC.
Position S 34°39' W 058°21'.

Length 300 m; draft 9.9 m.

Type: Cargo ship. MMSI: 477423500.

Date/timePositionNaut miles runAvg speedWind from/ knotsBaromVisibWave heightAir tempDewpointWater temp
2016-Jul-23 11:15S 34°39' W 058°21'16 5.9
2016-Jul-23 08:33S 34°40' W 058°01'8 7.4
2016-Jul-23 07:32S 34°43' W 057°53'0 0.1
2016-Jul-23 06:32S 34°43' W 057°53'0 0.0
2016-Jul-23 04:32S 34°43' W 057°53'0 0.0
2016-Jul-23 03:32S 34°43' W 057°53'0 0.1
2016-Jul-23 02:29S 34°43' W 057°53'0 0.0
2016-Jul-23 01:29S 34°43' W 057°53'0 0.0
2016-Jul-23 00:32S 34°43' W 057°53'0 0.1
2016-Jul-22 23:32S 34°43' W 057°53'0 0.1
2016-Jul-22 22:32S 34°43' W 057°53'0 0.1
2016-Jul-22 21:32S 34°43' W 057°53'0 0.0
2016-Jul-22 20:32S 34°43' W 057°53'0 0.2
2016-Jul-22 19:32S 34°43' W 057°53'1 1.1
2016-Jul-22 18:34S 34°43' W 057°51'1211.8
2016-Jul-22 17:33S 34°45' W 057°37'1413.7
2016-Jul-22 16:33S 34°51' W 057°22'1413.3
2016-Jul-22 15:30S 35°02' W 057°11'20411.0
2016-Jul-21 21:00S 34°06' W 053°12'5413.5 230 / 101023.327.0 0.511.0 7.711.0
2016-Jul-21 17:00S 33°36' W 052°18'26413.2 220 / 161024.3 5.4 1.513.0 6.819.0
2016-Jul-20 21:00S 29°54' W 049°30'13611.8 210 / 151022.010.8 0.513.2 5.616.0
2016-Jul-20 09:31S 27°57' W 048°12'1111.9
2016-Jul-20 08:33S 27°46' W 048°07'1312.2
2016-Jul-20 07:32S 27°35' W 048°01'3112.3
2016-Jul-20 05:00S 27°06' W 047°48'10012.5 180 / 281020.2 5.4 1.518.010.622.0
2016-Jul-19 21:00S 25°36' W 047°00'5812.6 180 / 71020.610.8 0.517.010.719.0
2016-Jul-19 16:24S 24°41' W 046°39'1214.1
2016-Jul-19 15:33S 24°30' W 046°33'1414.0
2016-Jul-19 14:33S 24°17' W 046°28'1313.4
2016-Jul-19 13:33S 24°05' W 046°22'8 8.4
2016-Jul-19 12:33S 23°57' W 046°18'3 1.6
2016-Jul-19 10:30S 23°55' W 046°21'0 0.0
2016-Jul-19 09:24S 23°55' W 046°21'0 0.0
2016-Jul-19 08:30S 23°55' W 046°21'0 0.0
2016-Jul-19 07:33S 23°55' W 046°21'0 0.0
2016-Jul-19 03:09S 23°55' W 046°21'0 0.0
2016-Jul-19 01:27S 23°55' W 046°21'0 0.0
2016-Jul-19 00:30S 23°55' W 046°21'0 0.0
2016-Jul-18 16:30S 23°55' W 046°21'0 0.0
2016-Jul-18 15:24S 23°55' W 046°21'0 0.0
2016-Jul-18 14:24S 23°55' W 046°21'0 0.0
2016-Jul-18 12:12S 23°55' W 046°21'0 0.0
2016-Jul-18 10:24S 23°55' W 046°21'0 0.0
2016-Jul-18 09:33S 23°55' W 046°21'0 0.0
2016-Jul-18 08:30S 23°55' W 046°21'0 0.0
2016-Jul-18 00:06S 23°55' W 046°21'0 0.0
2016-Jul-17 23:30S 23°55' W 046°21'0 0.0
2016-Jul-17 22:18S 23°55' W 046°21'0 0.0
2016-Jul-17 21:33S 23°55' W 046°21'0 0.0
2016-Jul-17 20:30S 23°55' W 046°21'0 0.0
2016-Jul-17 19:33S 23°55' W 046°21'2 2.5
2016-Jul-17 18:34S 23°57' W 046°19'5 5.3
2016-Jul-17 17:33S 24°02' W 046°21'10 9.9
2016-Jul-17 16:33S 24°11' W 046°19'4 4.2
2016-Jul-17 15:32S 24°12' W 046°14'0 0.0
2016-Jul-17 14:32S 24°11' W 046°14'0 0.0
2016-Jul-17 13:32S 24°11' W 046°14'0 0.0
2016-Jul-17 12:32S 24°11' W 046°14'0 0.0
2016-Jul-17 11:32S 24°11' W 046°14'0 0.0
2016-Jul-17 10:32S 24°11' W 046°14'0 0.0
2016-Jul-17 09:32S 24°12' W 046°14'0 0.0
2016-Jul-17 08:32S 24°11' W 046°14'0 0.0
2016-Jul-17 07:20S 24°11' W 046°14'0 0.0
2016-Jul-17 06:20S 24°11' W 046°14'0 0.0
2016-Jul-17 04:32S 24°11' W 046°14'0 0.0
2016-Jul-17 03:32S 24°11' W 046°14'0 0.0
2016-Jul-17 02:32S 24°11' W 046°14'0 0.1
2016-Jul-17 01:32S 24°12' W 046°14'5 5.0
2016-Jul-17 00:34S 24°16' W 046°14'1414.3
2016-Jul-16 23:34S 24°26' W 046°03'5120.0
2016-Jul-16 21:00S 24°48' W 045°12'8421.0 250 / 261010.010.8 2.019.617.021.0
2016-Jul-16 17:00S 25°24' W 043°48'7919.7 300 / 101008.5 5.4 0.521.016.024.0
2016-Jul-16 13:00S 26°00' W 042°30'9320.9 060 / 121009.510.8 0.523.019.923.0
2016-Jul-16 08:34S 26°41' W 040°57'2019.7
2016-Jul-16 07:34S 26°50' W 040°37'2120.4
2016-Jul-16 06:33S 26°59' W 040°17'3220.3
2016-Jul-16 05:00S 27°06' W 039°42'5319.3 300 / 221008.8 5.4 2.022.017.225.0
2016-Jul-16 02:16S 27°17' W 038°44'4319.6
2016-Jul-16 00:04S 27°23' W 037°56'677.8
2016-Jul-16 00:00S 27°18' W 037°54'1124.1 330 / 261019.210.8 1.521.520.722.0
2016-Jul-15 23:33S 27°25' W 037°45'7220.3
2016-Jul-15 20:00S 27°30' W 036°24'7719.1 340 / 231009.310.8 1.522.020.221.0
2016-Jul-15 16:00S 27°48' W 035°00'13422.3 330 / 251010.9 5.4 2.022.017.225.0
2016-Jul-15 10:00S 28°06' W 032°30'9616.0 290 / 111014.910.8 0.522.018.022.0
2016-Jul-15 04:00S 28°18' W 030°42'7518.7 360 / 141017.9 5.4 1.521.018.624.0
2016-Jul-15 00:00S 28°30' W 029°18'8120.3 340 / 71019.310.8 20.518.921.0
2016-Jul-14 20:00S 28°48' W 027°48'8019.9 320 / 201017.110.8 2.021.819.321.0
2016-Jul-14 16:00S 29°00' W 026°18'15419.2 300 / 251017.4 5.4 2.521.016.021.0
2016-Jul-14 08:00S 29°24' W 023°24'7318.3 320 / 171018.4 1.521.019.421.0
2016-Jul-14 04:00S 29°30' W 022°00'10120.1 320 / 251024.4 5.4 1.519.011.822.0
2016-Jul-13 23:00S 29°48' W 020°06'7418.5 270 / 241019.710.8 1.521.017.819.0
2016-Jul-13 19:00S 30°00' W 018°42'   360 / 101019.310.8 1.020.018.120.0
Track history (hours):
 
Tides and Currents Weather Stations Pressure Air Temp Water Temp Dewpoint Dewpoint Depression Visibility Wind Speed Wind Dir Waves Ship Positions

Maersk Lirquen

Last reported at 2016-Jul-23 11:15 UTC. Time now 2016-Jul-23 13:07 UTC.
Position S 34°39' W 058°21'.

Length 300 m; draft 9.9 m.

Type: Cargo ship. MMSI: 477423500.

Date/timePositionNaut miles runAvg speedWind from/ knotsBaromVisibWave heightAir tempDewpointWater temp
2016-Jul-23 11:15S 34°39' W 058°21'16 5.9
2016-Jul-23 08:33S 34°40' W 058°01'8 7.4
2016-Jul-23 07:32S 34°43' W 057°53'0 0.1
2016-Jul-23 06:32S 34°43' W 057°53'0 0.0
2016-Jul-23 04:32S 34°43' W 057°53'0 0.0
2016-Jul-23 03:32S 34°43' W 057°53'0 0.1
2016-Jul-23 02:29S 34°43' W 057°53'0 0.0
2016-Jul-23 01:29S 34°43' W 057°53'0 0.0
2016-Jul-23 00:32S 34°43' W 057°53'0 0.1
2016-Jul-22 23:32S 34°43' W 057°53'0 0.1
2016-Jul-22 22:32S 34°43' W 057°53'0 0.1
2016-Jul-22 21:32S 34°43' W 057°53'0 0.0
2016-Jul-22 20:32S 34°43' W 057°53'0 0.2
2016-Jul-22 19:32S 34°43' W 057°53'1 1.1
2016-Jul-22 18:34S 34°43' W 057°51'1211.8
2016-Jul-22 17:33S 34°45' W 057°37'1413.7
2016-Jul-22 16:33S 34°51' W 057°22'1413.3
2016-Jul-22 15:30S 35°02' W 057°11'20411.0
2016-Jul-21 21:00S 34°06' W 053°12'5413.5 230 / 101023.327.0 0.511.0 7.711.0
2016-Jul-21 17:00S 33°36' W 052°18'26413.2 220 / 161024.3 5.4 1.513.0 6.819.0
2016-Jul-20 21:00S 29°54' W 049°30'13611.8 210 / 151022.010.8 0.513.2 5.616.0
2016-Jul-20 09:31S 27°57' W 048°12'1111.9
2016-Jul-20 08:33S 27°46' W 048°07'1312.2
2016-Jul-20 07:32S 27°35' W 048°01'3112.3
2016-Jul-20 05:00S 27°06' W 047°48'10012.5 180 / 281020.2 5.4 1.518.010.622.0
2016-Jul-19 21:00S 25°36' W 047°00'5812.6 180 / 71020.610.8 0.517.010.719.0
2016-Jul-19 16:24S 24°41' W 046°39'1214.1
2016-Jul-19 15:33S 24°30' W 046°33'1414.0
2016-Jul-19 14:33S 24°17' W 046°28'1313.4
2016-Jul-19 13:33S 24°05' W 046°22'8 8.4
2016-Jul-19 12:33S 23°57' W 046°18'3 1.6
2016-Jul-19 10:30S 23°55' W 046°21'0 0.0
2016-Jul-19 09:24S 23°55' W 046°21'0 0.0
2016-Jul-19 08:30S 23°55' W 046°21'0 0.0
2016-Jul-19 07:33S 23°55' W 046°21'0 0.0
2016-Jul-19 03:09S 23°55' W 046°21'0 0.0
2016-Jul-19 01:27S 23°55' W 046°21'0 0.0
2016-Jul-19 00:30S 23°55' W 046°21'0 0.0
2016-Jul-18 16:30S 23°55' W 046°21'0 0.0
2016-Jul-18 15:24S 23°55' W 046°21'0 0.0
2016-Jul-18 14:24S 23°55' W 046°21'0 0.0
2016-Jul-18 12:12S 23°55' W 046°21'0 0.0
2016-Jul-18 10:24S 23°55' W 046°21'0 0.0
2016-Jul-18 09:33S 23°55' W 046°21'0 0.0
2016-Jul-18 08:30S 23°55' W 046°21'0 0.0
2016-Jul-18 00:06S 23°55' W 046°21'0 0.0
2016-Jul-17 23:30S 23°55' W 046°21'0 0.0
2016-Jul-17 22:18S 23°55' W 046°21'0 0.0
2016-Jul-17 21:33S 23°55' W 046°21'0 0.0
2016-Jul-17 20:30S 23°55' W 046°21'0 0.0
2016-Jul-17 19:33S 23°55' W 046°21'2 2.5
2016-Jul-17 18:34S 23°57' W 046°19'5 5.3
2016-Jul-17 17:33S 24°02' W 046°21'10 9.9
2016-Jul-17 16:33S 24°11' W 046°19'4 4.2
2016-Jul-17 15:32S 24°12' W 046°14'0 0.0
2016-Jul-17 14:32S 24°11' W 046°14'0 0.0
2016-Jul-17 13:32S 24°11' W 046°14'0 0.0
2016-Jul-17 12:32S 24°11' W 046°14'0 0.0
2016-Jul-17 11:32S 24°11' W 046°14'0 0.0
2016-Jul-17 10:32S 24°11' W 046°14'0 0.0
2016-Jul-17 09:32S 24°12' W 046°14'0 0.0
2016-Jul-17 08:32S 24°11' W 046°14'0 0.0
2016-Jul-17 07:20S 24°11' W 046°14'0 0.0
2016-Jul-17 06:20S 24°11' W 046°14'0 0.0
2016-Jul-17 04:32S 24°11' W 046°14'0 0.0
2016-Jul-17 03:32S 24°11' W 046°14'0 0.0
2016-Jul-17 02:32S 24°11' W 046°14'0 0.1
2016-Jul-17 01:32S 24°12' W 046°14'5 5.0
2016-Jul-17 00:34S 24°16' W 046°14'1414.3
2016-Jul-16 23:34S 24°26' W 046°03'5120.0
2016-Jul-16 21:00S 24°48' W 045°12'8421.0 250 / 261010.010.8 2.019.617.021.0
2016-Jul-16 17:00S 25°24' W 043°48'7919.7 300 / 101008.5 5.4 0.521.016.024.0
2016-Jul-16 13:00S 26°00' W 042°30'9320.9 060 / 121009.510.8 0.523.019.923.0
2016-Jul-16 08:34S 26°41' W 040°57'2019.7
2016-Jul-16 07:34S 26°50' W 040°37'2120.4
2016-Jul-16 06:33S 26°59' W 040°17'3220.3
2016-Jul-16 05:00S 27°06' W 039°42'5319.3 300 / 221008.8 5.4 2.022.017.225.0
2016-Jul-16 02:16S 27°17' W 038°44'4319.6
2016-Jul-16 00:04S 27°23' W 037°56'677.8
2016-Jul-16 00:00S 27°18' W 037°54'1124.1 330 / 261019.210.8 1.521.520.722.0
2016-Jul-15 23:33S 27°25' W 037°45'7220.3
2016-Jul-15 20:00S 27°30' W 036°24'7719.1 340 / 231009.310.8 1.522.020.221.0
2016-Jul-15 16:00S 27°48' W 035°00'13422.3 330 / 251010.9 5.4 2.022.017.225.0
2016-Jul-15 10:00S 28°06' W 032°30'9616.0 290 / 111014.910.8 0.522.018.022.0
2016-Jul-15 04:00S 28°18' W 030°42'7518.7 360 / 141017.9 5.4 1.521.018.624.0
2016-Jul-15 00:00S 28°30' W 029°18'8120.3 340 / 71019.310.8 20.518.921.0
2016-Jul-14 20:00S 28°48' W 027°48'8019.9 320 / 201017.110.8 2.021.819.321.0
2016-Jul-14 16:00S 29°00' W 026°18'15419.2 300 / 251017.4 5.4 2.521.016.021.0
2016-Jul-14 08:00S 29°24' W 023°24'7318.3 320 / 171018.4 1.521.019.421.0
2016-Jul-14 04:00S 29°30' W 022°00'10120.1 320 / 251024.4 5.4 1.519.011.822.0
2016-Jul-13 23:00S 29°48' W 020°06'7418.5 270 / 241019.710.8 1.521.017.819.0
2016-Jul-13 19:00S 30°00' W 018°42'   360 / 101019.310.8 1.020.018.120.0

Dump ship's entire track history